YSSYYBNA

Guest
Details From YSSY - Sydney Intl
To YBNA - Ballina
Flight Number -
Tags Routegen
Created
Modified
Stats Distance 342 nm / 634 km
Max Altitude 0 ft / 0 m
Waypoints 5
Social Downloads 20
Likes 0
Share VATSIM

Download

Looking for another format? Having issues loading an existing format? Contact us
Advertisement - Login to hide

Notes

None

Route

YSSY -33.79_+151.13 BANDA -28.96_+153.08 YBNA

ID Type Via Altitude (ft/m) Position (lat/lon) Dist (leg/tot) Name
O YSSY APT - 0 / 0 -33.92936 / 151.17160 - / 0 nm
-33.79_+151.13 DME - 0 / 0 -33.78786 / 151.13497 8 / 8 nm
BANDA FIX - 0 / 0 -30.79972 / 152.57306 193 / 202 nm
-28.96_+153.08 DME - 0 / 0 -28.95891 / 153.07624 113 / 316 nm
O YBNA APT - 0 / 0 -28.83575 / 153.55181 26 / 342 nm

Altitude Profile

Advertisement - Login to hide

Weather


0- 5 10 15 20 25 30 35+ Temperature / °C

Clouds and Precipitation
Forecast for 2018-10-21 18:00 UTC. Updated 3 hours ago

Ground ~20,000 ft ~40,000 ft Winds

YSSY

Details ICAO YSSY (SYD)
Name Sydney Kingsford Smith Airport
Region Australia
Timezone Australia/Sydney (UTC+11.0)
Stats Elevation 20 ft / 6 m (AMSL)
Location -33.946100° 151.177000°
Runways 3
Magnetic Variation 12.606° E

METAR

YSSY 211800Z 22006KT 9999 BKN025 17/13 Q1017 NOSIG

Decode

TAF

TAF YSSY 211635Z 2118/2224 22005KT 9999 SCT025 FM212300 12005KT 9999 FEW030 FM220100 04015KT CAVOK FM221000 01008KT CAVOK FM221200 29008KT CAVOK

Decode

Departure Runways

ID Width Length Bearing (true/mag) Surface Threshold Overrun Markings Lighting
07 148 ft / 45 m 8,315 ft / 2,534 m 74.09° / 61.49° ASPHALT 0 ft / 0 m 535 ft / 163 m PREC-APP CENTERLINE EDGE THRESHOLD MALSF
16L 148 ft / 45 m 8,018 ft / 2,444 m 167.79° / 155.18° ASPHALT 0 ft / 0 m 295 ft / 90 m PREC-APP CENTERLINE EDGE THRESHOLD MALSF
16R 148 ft / 45 m 13,030 ft / 3,971 m 167.92° / 155.31° ASPHALT 295 ft / 90 m 669 ft / 204 m PREC-APP CENTERLINE EDGE THRESHOLD MALSF
25 148 ft / 45 m 8,315 ft / 2,534 m 254.08° / 241.47° ASPHALT 331 ft / 101 m 174 ft / 53 m PREC-APP CENTERLINE EDGE THRESHOLD MALSF
34L 148 ft / 45 m 13,030 ft / 3,971 m 347.91° / 335.31° ASPHALT 0 ft / 0 m 991 ft / 302 m PREC-APP CENTERLINE EDGE THRESHOLD MALSF
34R 148 ft / 45 m 8,018 ft / 2,444 m 347.79° / 335.18° ASPHALT 125 ft / 38 m 292 ft / 89 m PREC-APP CENTERLINE EDGE THRESHOLD MALSF

YBNA

Details ICAO YBNA (BNK)
Name Ballina/Byron Gateway
Region Australia
Timezone Australia/Sydney (UTC+11.0)
Stats Elevation 6 ft / 2 m (AMSL)
Location -28.833300° 153.561000°
Runways 1
Magnetic Variation 11.563° E

METAR

YBNA 211700Z AUTO 24005KT 9999 // OVC013 18/17 Q1014

Decode

TAF

Not found

Destination Runways

ID Width Length Bearing (true/mag) Surface Threshold Overrun Markings Lighting
06 98 ft / 30 m 6,241 ft / 1,902 m 73.50° / 61.94° ASPHALT 0 ft / 0 m 0 ft / 0 m APP EDGE THRESHOLD
24 98 ft / 30 m 6,241 ft / 1,902 m 253.50° / 241.93° ASPHALT 0 ft / 0 m 0 ft / 0 m APP EDGE THRESHOLD

Popular Alternatives